createdAt,value
2022-07-25T00:02:09.208Z,20.90
2022-07-25T00:07:02.723Z,20.80
2022-07-25T00:11:57.466Z,20.70
2022-07-25T00:16:50.903Z,20.60
2022-07-25T00:21:44.340Z,20.70
2022-07-25T00:26:40.171Z,20.70
2022-07-25T00:31:35.612Z,20.70
2022-07-25T00:36:29.123Z,20.70
2022-07-25T00:41:22.604Z,20.60
2022-07-25T00:46:19.025Z,20.60
2022-07-25T00:51:17.885Z,20.50
2022-07-25T00:56:12.345Z,20.50
2022-07-25T01:01:06.405Z,20.30
2022-07-25T01:05:59.919Z,20.30
2022-07-25T01:10:54.908Z,20.20
2022-07-25T01:15:48.317Z,20.20
2022-07-25T01:20:43.491Z,20.10
2022-07-25T01:25:36.997Z,20.10
2022-07-25T01:30:30.426Z,20.20
2022-07-25T01:35:23.925Z,20.00
2022-07-25T01:40:19.660Z,20.10
2022-07-25T01:45:14.339Z,20.00
2022-07-25T01:50:10.150Z,20.00
2022-07-25T01:55:03.589Z,19.90
2022-07-25T02:00:01.298Z,19.90
2022-07-25T02:04:54.934Z,19.90
2022-07-25T02:09:51.069Z,19.90
2022-07-25T02:14:48.471Z,19.80
2022-07-25T02:19:43.282Z,19.80
2022-07-25T02:24:37.224Z,19.80
2022-07-25T02:29:30.647Z,19.80
2022-07-25T02:34:24.053Z,19.70
2022-07-25T02:39:18.845Z,19.70
2022-07-25T02:44:12.729Z,19.60
2022-07-25T02:49:06.425Z,19.60
2022-07-25T02:54:00.137Z,19.50
2022-07-25T02:58:54.999Z,19.30
2022-07-25T03:03:48.419Z,19.40
2022-07-25T03:08:42.069Z,19.30
2022-07-25T03:13:35.493Z,19.30
2022-07-25T03:18:30.388Z,19.40
2022-07-25T03:23:25.126Z,19.30
2022-07-25T03:28:18.585Z,19.30
2022-07-25T03:33:12.388Z,19.30
2022-07-25T03:38:07.772Z,19.30
2022-07-25T03:43:01.233Z,19.30
2022-07-25T03:47:54.695Z,19.30
2022-07-25T03:52:48.200Z,19.30
2022-07-25T03:57:43.291Z,19.40
2022-07-25T04:02:37.786Z,19.30
2022-07-25T04:07:31.355Z,19.20
2022-07-25T04:12:24.979Z,19.20
2022-07-25T04:17:19.735Z,19.20
2022-07-25T04:22:14.425Z,19.20
2022-07-25T04:27:07.854Z,19.20
2022-07-25T04:32:01.394Z,19.30
2022-07-25T04:36:56.270Z,19.30
2022-07-25T04:41:50.051Z,19.30
2022-07-25T04:46:43.535Z,19.40
2022-07-25T04:51:36.953Z,19.50
2022-07-25T04:56:31.803Z,19.60
2022-07-25T05:01:25.338Z,19.80
2022-07-25T05:06:19.562Z,20.00
2022-07-25T05:11:13.094Z,20.30
2022-07-25T05:16:08.640Z,20.60
2022-07-25T05:21:02.147Z,20.80
2022-07-25T05:25:55.557Z,21.00
2022-07-25T05:30:49.032Z,21.10
2022-07-25T05:35:44.255Z,21.30
2022-07-25T05:40:37.722Z,21.50
2022-07-25T05:45:31.223Z,21.60
2022-07-25T05:50:24.970Z,21.70
2022-07-25T05:55:20.252Z,21.70
2022-07-25T06:00:16.460Z,21.70
2022-07-25T06:05:10.700Z,21.70
2022-07-25T06:10:04.498Z,21.70
2022-07-25T06:15:01.821Z,21.60
2022-07-25T06:19:55.124Z,21.60
2022-07-25T06:24:48.778Z,21.60
2022-07-25T06:29:42.188Z,21.50
2022-07-25T06:34:37.004Z,21.40
2022-07-25T06:39:30.390Z,21.50
2022-07-25T06:44:23.913Z,21.60
2022-07-25T06:49:17.631Z,21.70
2022-07-25T06:54:14.163Z,21.80
2022-07-25T06:59:07.854Z,21.90
2022-07-25T07:04:01.372Z,22.00
2022-07-25T07:08:54.806Z,22.10
2022-07-25T07:13:49.647Z,22.40
2022-07-25T07:18:47.204Z,22.70
2022-07-25T07:23:48.618Z,22.90
2022-07-25T07:59:46.192Z,24.90
2022-07-25T08:09:40.161Z,25.10
2022-07-25T08:14:34.087Z,25.20
2022-07-25T08:19:28.981Z,25.30
2022-07-25T08:24:22.475Z,25.60
2022-07-25T08:29:19.608Z,25.80
2022-07-25T08:34:14.116Z,26.10
2022-07-25T08:39:08.926Z,26.20
2022-07-25T08:44:04.299Z,26.40
2022-07-25T08:48:58.365Z,26.60
2022-07-25T08:53:52.730Z,26.90
2022-07-25T08:58:48.009Z,27.10
2022-07-25T09:03:43.040Z,27.20
2022-07-25T09:08:36.558Z,27.40
2022-07-25T09:13:31.257Z,27.50
2022-07-25T09:18:28.208Z,27.70
2022-07-25T09:23:31.638Z,27.80
2022-07-25T09:28:24.962Z,27.90
2022-07-25T09:33:18.603Z,28.00
2022-07-25T09:38:16.173Z,28.20
2022-07-25T09:43:10.086Z,28.20
2022-07-25T09:48:06.269Z,28.30
2022-07-25T09:53:02.457Z,28.50
2022-07-25T09:57:57.685Z,28.60
2022-07-25T10:03:06.567Z,28.70
2022-07-25T10:08:01.810Z,28.90
2022-07-25T10:13:11.053Z,29.10
2022-07-25T10:18:08.267Z,29.20
2022-07-25T10:23:01.891Z,29.30
2022-07-25T10:28:03.715Z,29.40
2022-07-25T10:33:04.824Z,29.60
2022-07-25T10:38:00.756Z,29.80
2022-07-25T10:43:02.969Z,29.90
2022-07-25T10:47:56.897Z,30.10
2022-07-25T10:53:00.951Z,30.30
2022-07-25T10:58:17.155Z,30.50
2022-07-25T11:03:16.068Z,30.50
2022-07-25T11:08:21.643Z,30.60
2022-07-25T11:13:16.771Z,30.70
2022-07-25T11:18:10.187Z,30.80
2022-07-25T11:23:03.633Z,30.80
2022-07-25T11:28:03.627Z,30.90
2022-07-25T11:33:01.467Z,31.10
2022-07-25T11:37:55.879Z,31.30
2022-07-25T11:42:53.306Z,31.50
2022-07-25T11:47:50.219Z,31.70
2022-07-25T11:52:45.830Z,31.80
2022-07-25T11:57:41.571Z,31.90
2022-07-25T12:02:36.896Z,32.00
2022-07-25T12:07:45.068Z,32.10
2022-07-25T12:12:52.066Z,32.10
2022-07-25T12:17:45.542Z,32.10
2022-07-25T12:22:40.233Z,32.10
2022-07-25T12:27:34.530Z,32.10
2022-07-25T12:32:27.910Z,32.10
2022-07-25T12:37:22.091Z,32.10
2022-07-25T12:42:16.843Z,32.10
2022-07-25T12:47:10.645Z,32.00
2022-07-25T12:52:04.706Z,32.00
2022-07-25T12:56:58.279Z,31.90
2022-07-25T13:01:53.271Z,31.90
2022-07-25T13:06:47.032Z,31.80
2022-07-25T13:11:40.430Z,31.70
2022-07-25T13:16:37.658Z,31.70
2022-07-25T13:21:32.577Z,31.60
2022-07-25T13:26:26.017Z,31.30
2022-07-25T13:31:20.148Z,31.20
2022-07-25T13:36:13.637Z,31.30
2022-07-25T13:41:09.216Z,31.40
2022-07-25T13:46:03.047Z,31.60
2022-07-25T13:50:56.506Z,31.70
2022-07-25T13:55:50.497Z,31.80
2022-07-25T14:00:45.689Z,31.60
2022-07-25T14:05:40.531Z,31.60
2022-07-25T14:10:33.949Z,31.60
2022-07-25T14:15:27.591Z,31.60
2022-07-25T14:20:22.515Z,31.60
2022-07-25T14:25:15.934Z,31.50
2022-07-25T14:30:11.210Z,31.40
2022-07-25T14:35:10.981Z,31.40
2022-07-25T14:40:07.531Z,31.30
2022-07-25T14:45:00.966Z,31.30
2022-07-25T14:49:54.299Z,31.20
2022-07-25T14:54:47.584Z,31.20
2022-07-25T14:59:42.716Z,31.20
2022-07-25T15:04:36.338Z,31.30
2022-07-25T15:09:29.897Z,31.30
2022-07-25T15:14:23.585Z,31.10
2022-07-25T15:19:19.411Z,31.00
2022-07-25T15:24:13.303Z,30.90
2022-07-25T15:29:09.641Z,31.00
2022-07-25T15:34:03.347Z,31.00
2022-07-25T15:38:58.196Z,30.80
2022-07-25T15:43:51.935Z,30.70
2022-07-25T15:48:45.820Z,30.60
2022-07-25T15:53:39.290Z,30.50
2022-07-25T15:58:34.105Z,30.50
2022-07-25T16:03:27.585Z,30.50
2022-07-25T16:08:21.071Z,30.60
2022-07-25T16:13:14.524Z,30.50
2022-07-25T16:18:09.276Z,30.40
2022-07-25T16:23:03.061Z,30.20
2022-07-25T16:27:59.147Z,30.00
2022-07-25T16:32:52.923Z,29.90
2022-07-25T16:37:48.078Z,29.90
2022-07-25T16:42:41.742Z,29.90
2022-07-25T16:47:35.202Z,30.00
2022-07-25T16:52:28.537Z,29.80
2022-07-25T16:57:24.853Z,29.60
2022-07-25T17:02:18.494Z,29.40
2022-07-25T17:07:12.018Z,29.40
2022-07-25T17:12:06.507Z,29.30
2022-07-25T17:17:02.584Z,29.40
2022-07-25T17:21:55.931Z,29.40
2022-07-25T17:26:49.352Z,29.40
2022-07-25T17:31:42.829Z,29.50
2022-07-25T17:36:37.775Z,29.50
2022-07-25T17:41:31.209Z,29.40
2022-07-25T17:46:24.639Z,29.50
2022-07-25T17:51:20.965Z,29.50
2022-07-25T17:56:16.256Z,29.60
2022-07-25T18:01:10.648Z,29.50
2022-07-25T18:06:06.339Z,29.50
2022-07-25T18:11:00.083Z,29.50
2022-07-25T18:15:55.377Z,29.40
2022-07-25T18:20:49.192Z,29.30
2022-07-25T18:25:43.068Z,29.30
2022-07-25T18:30:36.942Z,29.30
2022-07-25T18:35:32.840Z,29.30
2022-07-25T18:40:26.527Z,29.20
2022-07-25T18:45:20.040Z,29.20
2022-07-25T18:50:14.596Z,29.20
2022-07-25T18:55:11.195Z,29.00
2022-07-25T19:00:06.006Z,28.90
2022-07-25T19:04:59.526Z,28.70
2022-07-25T19:09:53.253Z,28.60
2022-07-25T19:14:48.084Z,28.50
2022-07-25T19:19:41.642Z,28.50
2022-07-25T19:24:35.268Z,28.40
2022-07-25T19:29:28.806Z,28.40
2022-07-25T19:34:23.808Z,28.20
2022-07-25T19:39:17.938Z,28.20
2022-07-25T19:44:11.392Z,28.10
2022-07-25T19:49:06.541Z,28.20
2022-07-25T19:54:04.445Z,28.00
2022-07-25T19:58:58.313Z,28.00
2022-07-25T20:03:51.698Z,28.00
2022-07-25T20:08:45.080Z,28.00
2022-07-25T20:13:39.914Z,27.90
2022-07-25T20:18:33.619Z,27.90
2022-07-25T20:23:27.240Z,27.80
2022-07-25T20:28:20.800Z,27.40
2022-07-25T20:33:15.793Z,27.20
2022-07-25T20:38:10.366Z,27.00
2022-07-25T20:43:04.428Z,26.90
2022-07-25T20:47:57.884Z,26.90
2022-07-25T20:52:53.385Z,26.80
2022-07-25T20:57:50.443Z,26.90
2022-07-25T21:02:44.211Z,26.80
2022-07-25T21:07:37.690Z,26.70
2022-07-25T21:12:33.207Z,26.70
2022-07-25T21:17:26.697Z,26.70
2022-07-25T21:22:20.065Z,26.60
2022-07-25T21:27:13.582Z,26.60
2022-07-25T21:32:14.151Z,26.50
2022-07-25T21:37:07.784Z,26.40
2022-07-25T21:42:01.252Z,26.30
2022-07-25T21:47:05.430Z,26.30
2022-07-25T21:52:01.891Z,26.20
2022-07-25T21:56:58.480Z,26.20
2022-07-25T22:01:51.838Z,26.10
2022-07-25T22:06:45.365Z,26.00
2022-07-25T22:11:45.996Z,25.90
2022-07-25T22:16:40.107Z,25.90
2022-07-25T22:21:36.179Z,25.90
2022-07-25T22:26:29.632Z,25.80
2022-07-25T22:31:24.408Z,25.70
2022-07-25T22:36:25.709Z,25.70
2022-07-25T22:41:19.103Z,25.60
2022-07-25T22:46:19.086Z,25.50
2022-07-25T22:51:13.833Z,25.60
2022-07-25T22:56:07.207Z,25.50
2022-07-25T23:01:00.620Z,25.50
2022-07-25T23:05:53.967Z,25.40
2022-07-25T23:10:48.947Z,25.40
2022-07-25T23:15:49.943Z,25.40
2022-07-25T23:20:44.242Z,25.40
2022-07-25T23:25:42.386Z,25.40
2022-07-25T23:30:40.703Z,25.30
2022-07-25T23:35:34.347Z,25.30
2022-07-25T23:40:27.741Z,25.20
2022-07-25T23:45:21.155Z,25.10
2022-07-25T23:50:16.037Z,25.00
2022-07-25T23:55:11.104Z,24.90
